sensor_id;sensor_type;location;lat;lon;timestamp;pressure;altitude;pressure_sealevel;temperature;humidity
34586;BME280;20816;50.950;11.108;2022-12-16T00:01:02;97726.88;;;-8.97;100.00
34586;BME280;20816;50.950;11.108;2022-12-16T00:04:12;97737.06;;;-8.97;100.00
34586;BME280;20816;50.950;11.108;2022-12-16T00:06:49;97735.56;;;-8.92;100.00
34586;BME280;20816;50.950;11.108;2022-12-16T00:10:08;97741.78;;;-8.85;100.00
34586;BME280;20816;50.950;11.108;2022-12-16T00:13:25;97745.81;;;-8.69;100.00
34586;BME280;20816;50.950;11.108;2022-12-16T00:15:57;97730.69;;;-8.65;100.00
34586;BME280;20816;50.950;11.108;2022-12-16T00:18:25;97739.78;;;-8.71;100.00
34586;BME280;20816;50.950;11.108;2022-12-16T00:20:52;97743.25;;;-8.69;100.00
34586;BME280;20816;50.950;11.108;2022-12-16T00:23:21;97736.28;;;-8.73;100.00
34586;BME280;20816;50.950;11.108;2022-12-16T00:25:48;97732.72;;;-8.79;100.00
34586;BME280;20816;50.950;11.108;2022-12-16T00:28:17;97726.50;;;-8.85;100.00
34586;BME280;20816;50.950;11.108;2022-12-16T00:30:52;97729.97;;;-8.83;100.00
34586;BME280;20816;50.950;11.108;2022-12-16T00:33:22;97721.41;;;-8.85;100.00
34586;BME280;20816;50.950;11.108;2022-12-16T00:35:50;97728.63;;;-8.96;100.00
34586;BME280;20816;50.950;11.108;2022-12-16T00:38:17;97739.69;;;-8.95;100.00
34586;BME280;20816;50.950;11.108;2022-12-16T00:40:44;97731.19;;;-8.96;100.00
34586;BME280;20816;50.950;11.108;2022-12-16T00:43:12;97734.19;;;-9.05;100.00
34586;BME280;20816;50.950;11.108;2022-12-16T00:45:38;97740.03;;;-9.07;100.00
34586;BME280;20816;50.950;11.108;2022-12-16T00:48:06;97738.06;;;-9.14;100.00
34586;BME280;20816;50.950;11.108;2022-12-16T00:50:34;97728.59;;;-9.18;100.00
34586;BME280;20816;50.950;11.108;2022-12-16T00:53:01;97728.22;;;-9.27;100.00
34586;BME280;20816;50.950;11.108;2022-12-16T00:56:03;97726.75;;;-9.21;100.00
34586;BME280;20816;50.950;11.108;2022-12-16T00:59:11;97728.88;;;-9.32;100.00
34586;BME280;20816;50.950;11.108;2022-12-16T01:01:47;97729.25;;;-9.43;100.00
34586;BME280;20816;50.950;11.108;2022-12-16T01:08:26;97724.13;;;-9.64;100.00
34586;BME280;20816;50.950;11.108;2022-12-16T01:11:47;97729.75;;;-9.52;100.00
34586;BME280;20816;50.950;11.108;2022-12-16T01:14:38;97739.38;;;-9.64;100.00
34586;BME280;20816;50.950;11.108;2022-12-16T01:21:53;97743.00;;;-9.59;100.00
34586;BME280;20816;50.950;11.108;2022-12-16T01:27:21;97733.59;;;-9.41;100.00
34586;BME280;20816;50.950;11.108;2022-12-16T01:29:48;97738.78;;;-9.38;100.00
34586;BME280;20816;50.950;11.108;2022-12-16T01:32:15;97742.13;;;-9.39;100.00
34586;BME280;20816;50.950;11.108;2022-12-16T01:34:42;97742.28;;;-9.36;100.00
34586;BME280;20816;50.950;11.108;2022-12-16T01:37:16;97750.47;;;-9.43;100.00
34586;BME280;20816;50.950;11.108;2022-12-16T01:39:43;97752.00;;;-9.46;100.00
34586;BME280;20816;50.950;11.108;2022-12-16T01:42:15;97752.47;;;-9.55;100.00
34586;BME280;20816;50.950;11.108;2022-12-16T01:44:43;97756.38;;;-9.63;100.00
34586;BME280;20816;50.950;11.108;2022-12-16T01:47:29;97750.94;;;-9.71;100.00
34586;BME280;20816;50.950;11.108;2022-12-16T01:50:05;97754.25;;;-9.73;100.00
34586;BME280;20816;50.950;11.108;2022-12-16T01:52:38;97759.03;;;-9.79;100.00
34586;BME280;20816;50.950;11.108;2022-12-16T01:55:12;97754.84;;;-9.79;100.00
34586;BME280;20816;50.950;11.108;2022-12-16T01:57:47;97752.22;;;-9.80;100.00
34586;BME280;20816;50.950;11.108;2022-12-16T02:00:16;97750.75;;;-9.75;100.00
34586;BME280;20816;50.950;11.108;2022-12-16T02:02:43;97745.69;;;-9.75;100.00
34586;BME280;20816;50.950;11.108;2022-12-16T02:05:13;97750.63;;;-9.78;100.00
34586;BME280;20816;50.950;11.108;2022-12-16T02:10:38;97739.94;;;-9.91;100.00
34586;BME280;20816;50.950;11.108;2022-12-16T02:13:35;97742.88;;;-10.01;100.00
34586;BME280;20816;50.950;11.108;2022-12-16T02:16:13;97737.47;;;-10.08;100.00
34586;BME280;20816;50.950;11.108;2022-12-16T02:21:37;97742.31;;;-10.13;100.00
34586;BME280;20816;50.950;11.108;2022-12-16T02:26:45;97749.81;;;-9.97;100.00
34586;BME280;20816;50.950;11.108;2022-12-16T02:35:38;97744.28;;;-9.88;100.00
34586;BME280;20816;50.950;11.108;2022-12-16T02:38:26;97753.88;;;-9.62;100.00
34586;BME280;20816;50.950;11.108;2022-12-16T02:41:03;97755.00;;;-9.55;100.00
34586;BME280;20816;50.950;11.108;2022-12-16T02:46:11;97751.09;;;-9.27;100.00
34586;BME280;20816;50.950;11.108;2022-12-16T02:48:37;97757.38;;;-9.19;100.00
34586;BME280;20816;50.950;11.108;2022-12-16T02:51:04;97745.84;;;-9.11;100.00
34586;BME280;20816;50.950;11.108;2022-12-16T02:53:33;97749.00;;;-8.96;100.00
34586;BME280;20816;50.950;11.108;2022-12-16T02:56:11;97750.28;;;-8.85;100.00
34586;BME280;20816;50.950;11.108;2022-12-16T03:01:38;97746.63;;;-8.70;100.00
34586;BME280;20816;50.950;11.108;2022-12-16T03:04:11;97744.88;;;-8.71;100.00
34586;BME280;20816;50.950;11.108;2022-12-16T03:06:43;97751.75;;;-8.69;100.00
34586;BME280;20816;50.950;11.108;2022-12-16T03:09:16;97759.50;;;-8.66;100.00
34586;BME280;20816;50.950;11.108;2022-12-16T03:11:45;97759.00;;;-8.57;100.00
34586;BME280;20816;50.950;11.108;2022-12-16T03:14:16;97757.50;;;-8.52;100.00
34586;BME280;20816;50.950;11.108;2022-12-16T03:16:45;97757.88;;;-8.43;100.00
34586;BME280;20816;50.950;11.108;2022-12-16T03:19:13;97756.38;;;-8.38;100.00
34586;BME280;20816;50.950;11.108;2022-12-16T03:21:48;97763.16;;;-8.38;100.00
34586;BME280;20816;50.950;11.108;2022-12-16T03:24:17;97747.00;;;-8.39;100.00
34586;BME280;20816;50.950;11.108;2022-12-16T03:27:15;97748.63;;;-8.39;100.00
34586;BME280;20816;50.950;11.108;2022-12-16T03:29:52;97745.59;;;-8.53;100.00
34586;BME280;20816;50.950;11.108;2022-12-16T03:32:37;97745.84;;;-8.68;100.00
34586;BME280;20816;50.950;11.108;2022-12-16T03:35:16;97741.84;;;-8.84;100.00
34586;BME280;20816;50.950;11.108;2022-12-16T03:37:47;97755.84;;;-8.95;100.00
34586;BME280;20816;50.950;11.108;2022-12-16T03:40:16;97759.28;;;-8.93;100.00
34586;BME280;20816;50.950;11.108;2022-12-16T03:42:43;97767.38;;;-9.03;100.00
34586;BME280;20816;50.950;11.108;2022-12-16T03:45:13;97763.50;;;-9.14;100.00
34586;BME280;20816;50.950;11.108;2022-12-16T03:47:47;97767.00;;;-9.12;100.00
34586;BME280;20816;50.950;11.108;2022-12-16T03:50:16;97761.91;;;-9.12;100.00
34586;BME280;20816;50.950;11.108;2022-12-16T03:52:44;97771.19;;;-9.34;100.00
34586;BME280;20816;50.950;11.108;2022-12-16T03:55:11;97771.63;;;-9.44;100.00
34586;BME280;20816;50.950;11.108;2022-12-16T03:57:38;97773.78;;;-9.53;100.00
34586;BME280;20816;50.950;11.108;2022-12-16T04:00:05;97783.78;;;-9.56;100.00
34586;BME280;20816;50.950;11.108;2022-12-16T04:02:32;97780.91;;;-9.64;100.00
34586;BME280;20816;50.950;11.108;2022-12-16T04:04:59;97793.56;;;-9.65;100.00
34586;BME280;20816;50.950;11.108;2022-12-16T04:07:25;97786.88;;;-9.63;100.00
34586;BME280;20816;50.950;11.108;2022-12-16T04:09:52;97793.97;;;-9.75;100.00
34586;BME280;20816;50.950;11.108;2022-12-16T04:12:19;97779.25;;;-9.82;100.00
34586;BME280;20816;50.950;11.108;2022-12-16T04:15:05;97794.09;;;-9.92;100.00
34586;BME280;20816;50.950;11.108;2022-12-16T04:17:51;97799.91;;;-9.94;100.00
34586;BME280;20816;50.950;11.108;2022-12-16T04:20:38;97804.84;;;-9.97;100.00
34586;BME280;20816;50.950;11.108;2022-12-16T04:23:26;97804.50;;;-10.05;100.00
34586;BME280;20816;50.950;11.108;2022-12-16T04:26:13;97799.53;;;-10.21;100.00
34586;BME280;20816;50.950;11.108;2022-12-16T04:28:40;97804.53;;;-10.24;100.00
34586;BME280;20816;50.950;11.108;2022-12-16T04:31:07;97800.41;;;-10.21;100.00
34586;BME280;20816;50.950;11.108;2022-12-16T04:33:34;97809.59;;;-10.24;100.00
34586;BME280;20816;50.950;11.108;2022-12-16T04:36:19;97805.31;;;-10.25;100.00
34586;BME280;20816;50.950;11.108;2022-12-16T04:39:04;97805.03;;;-10.31;100.00
34586;BME280;20816;50.950;11.108;2022-12-16T04:41:53;97820.34;;;-10.30;100.00
34586;BME280;20816;50.950;11.108;2022-12-16T04:44:39;97822.22;;;-10.43;100.00
34586;BME280;20816;50.950;11.108;2022-12-16T04:47:24;97826.31;;;-10.47;100.00
34586;BME280;20816;50.950;11.108;2022-12-16T04:50:09;97823.69;;;-10.49;100.00
34586;BME280;20816;50.950;11.108;2022-12-16T04:52:54;97824.69;;;-10.45;100.00
34586;BME280;20816;50.950;11.108;2022-12-16T04:55:40;97832.38;;;-10.43;100.00
34586;BME280;20816;50.950;11.108;2022-12-16T04:58:29;97832.03;;;-10.33;100.00
34586;BME280;20816;50.950;11.108;2022-12-16T05:01:14;97827.38;;;-10.24;100.00
34586;BME280;20816;50.950;11.108;2022-12-16T05:04:00;97820.16;;;-10.15;100.00
34586;BME280;20816;50.950;11.108;2022-12-16T05:06:45;97818.41;;;-10.16;100.00
34586;BME280;20816;50.950;11.108;2022-12-16T05:09:30;97823.34;;;-10.19;100.00
34586;BME280;20816;50.950;11.108;2022-12-16T05:12:15;97823.91;;;-10.26;100.00
34586;BME280;20816;50.950;11.108;2022-12-16T05:15:00;97824.53;;;-10.30;100.00
34586;BME280;20816;50.950;11.108;2022-12-16T05:17:45;97826.78;;;-10.36;100.00
34586;BME280;20816;50.950;11.108;2022-12-16T05:20:30;97831.22;;;-10.32;100.00
34586;BME280;20816;50.950;11.108;2022-12-16T05:23:15;97835.59;;;-10.48;100.00
34586;BME280;20816;50.950;11.108;2022-12-16T05:26:01;97837.91;;;-10.52;100.00
34586;BME280;20816;50.950;11.108;2022-12-16T05:28:46;97837.91;;;-10.52;100.00
34586;BME280;20816;50.950;11.108;2022-12-16T05:31:31;97835.88;;;-10.41;100.00
34586;BME280;20816;50.950;11.108;2022-12-16T05:34:17;97845.63;;;-10.51;100.00
34586;BME280;20816;50.950;11.108;2022-12-16T05:37:02;97847.47;;;-10.47;100.00
34586;BME280;20816;50.950;11.108;2022-12-16T05:39:47;97848.28;;;-10.48;100.00
34586;BME280;20816;50.950;11.108;2022-12-16T05:42:32;97860.69;;;-10.54;100.00
34586;BME280;20816;50.950;11.108;2022-12-16T05:45:17;97850.97;;;-10.44;100.00
34586;BME280;20816;50.950;11.108;2022-12-16T05:48:02;97854.59;;;-10.39;100.00
34586;BME280;20816;50.950;11.108;2022-12-16T05:50:48;97857.19;;;-10.38;100.00
34586;BME280;20816;50.950;11.108;2022-12-16T05:53:33;97860.53;;;-10.39;100.00
34586;BME280;20816;50.950;11.108;2022-12-16T05:56:18;97860.84;;;-10.51;100.00
34586;BME280;20816;50.950;11.108;2022-12-16T05:59:03;97869.34;;;-10.50;100.00
34586;BME280;20816;50.950;11.108;2022-12-16T06:01:48;97879.38;;;-10.52;100.00
34586;BME280;20816;50.950;11.108;2022-12-16T06:04:33;97878.69;;;-10.49;100.00
34586;BME280;20816;50.950;11.108;2022-12-16T06:07:18;97869.84;;;-10.39;100.00
34586;BME280;20816;50.950;11.108;2022-12-16T06:10:04;97874.41;;;-10.32;100.00
34586;BME280;20816;50.950;11.108;2022-12-16T06:12:49;97876.94;;;-10.32;100.00
34586;BME280;20816;50.950;11.108;2022-12-16T06:15:34;97887.09;;;-10.32;100.00
34586;BME280;20816;50.950;11.108;2022-12-16T06:18:20;97893.78;;;-10.34;100.00
34586;BME280;20816;50.950;11.108;2022-12-16T06:21:05;97898.41;;;-10.43;100.00
34586;BME280;20816;50.950;11.108;2022-12-16T06:23:50;97899.06;;;-10.48;100.00
34586;BME280;20816;50.950;11.108;2022-12-16T06:26:35;97905.50;;;-10.54;100.00
34586;BME280;20816;50.950;11.108;2022-12-16T06:29:20;97911.88;;;-10.62;100.00
34586;BME280;20816;50.950;11.108;2022-12-16T06:32:05;97920.66;;;-10.56;100.00
34586;BME280;20816;50.950;11.108;2022-12-16T06:34:50;97915.22;;;-10.63;100.00
34586;BME280;20816;50.950;11.108;2022-12-16T06:37:35;97924.84;;;-10.74;100.00
34586;BME280;20816;50.950;11.108;2022-12-16T06:40:20;97927.22;;;-10.77;100.00
34586;BME280;20816;50.950;11.108;2022-12-16T06:43:05;97931.84;;;-10.86;100.00
34586;BME280;20816;50.950;11.108;2022-12-16T06:45:50;97936.78;;;-10.89;100.00
34586;BME280;20816;50.950;11.108;2022-12-16T06:48:35;97939.84;;;-10.79;100.00
34586;BME280;20816;50.950;11.108;2022-12-16T06:51:20;97947.84;;;-10.87;100.00
34586;BME280;20816;50.950;11.108;2022-12-16T06:54:06;97954.28;;;-10.94;100.00
34586;BME280;20816;50.950;11.108;2022-12-16T06:56:51;97957.53;;;-10.80;100.00
34586;BME280;20816;50.950;11.108;2022-12-16T06:59:36;97959.09;;;-10.66;100.00
34586;BME280;20816;50.950;11.108;2022-12-16T07:02:21;97966.13;;;-10.60;100.00
34586;BME280;20816;50.950;11.108;2022-12-16T07:05:07;97966.44;;;-10.54;100.00
34586;BME280;20816;50.950;11.108;2022-12-16T07:07:53;97978.81;;;-10.60;100.00
34586;BME280;20816;50.950;11.108;2022-12-16T07:10:38;97978.44;;;-10.68;100.00
34586;BME280;20816;50.950;11.108;2022-12-16T07:13:41;97988.50;;;-10.69;100.00
34586;BME280;20816;50.950;11.108;2022-12-16T07:16:26;97995.44;;;-10.67;100.00
34586;BME280;20816;50.950;11.108;2022-12-16T07:19:11;97999.22;;;-10.59;100.00
34586;BME280;20816;50.950;11.108;2022-12-16T07:21:56;97998.09;;;-10.48;100.00
34586;BME280;20816;50.950;11.108;2022-12-16T07:24:41;97999.28;;;-10.41;100.00
34586;BME280;20816;50.950;11.108;2022-12-16T07:27:26;98006.97;;;-10.39;100.00
34586;BME280;20816;50.950;11.108;2022-12-16T07:30:11;98012.50;;;-10.30;100.00
34586;BME280;20816;50.950;11.108;2022-12-16T07:32:57;98011.06;;;-10.25;100.00
34586;BME280;20816;50.950;11.108;2022-12-16T07:35:43;98009.38;;;-10.07;100.00
34586;BME280;20816;50.950;11.108;2022-12-16T07:38:28;98005.97;;;-9.90;100.00
34586;BME280;20816;50.950;11.108;2022-12-16T07:41:13;98004.53;;;-9.67;100.00
34586;BME280;20816;50.950;11.108;2022-12-16T07:43:58;98012.81;;;-9.53;100.00
34586;BME280;20816;50.950;11.108;2022-12-16T07:46:43;98025.22;;;-9.59;100.00
34586;BME280;20816;50.950;11.108;2022-12-16T07:49:28;98031.81;;;-9.63;100.00
34586;BME280;20816;50.950;11.108;2022-12-16T07:52:14;98032.94;;;-9.75;100.00
34586;BME280;20816;50.950;11.108;2022-12-16T07:55:16;98034.88;;;-9.88;100.00
34586;BME280;20816;50.950;11.108;2022-12-16T07:58:01;98051.41;;;-9.96;100.00
34586;BME280;20816;50.950;11.108;2022-12-16T08:00:52;98053.97;;;-9.96;100.00
34586;BME280;20816;50.950;11.108;2022-12-16T08:03:40;98054.75;;;-9.97;100.00
34586;BME280;20816;50.950;11.108;2022-12-16T08:06:28;98055.06;;;-9.91;100.00
34586;BME280;20816;50.950;11.108;2022-12-16T08:09:13;98058.84;;;-9.82;100.00
34586;BME280;20816;50.950;11.108;2022-12-16T08:12:03;98049.84;;;-9.76;100.00
34586;BME280;20816;50.950;11.108;2022-12-16T08:14:49;98054.22;;;-9.73;100.00
34586;BME280;20816;50.950;11.108;2022-12-16T08:17:40;98064.81;;;-9.64;100.00
34586;BME280;20816;50.950;11.108;2022-12-16T08:20:26;98064.53;;;-9.52;100.00
34586;BME280;20816;50.950;11.108;2022-12-16T08:23:12;98074.28;;;-9.44;100.00
34586;BME280;20816;50.950;11.108;2022-12-16T08:26:00;98074.72;;;-9.35;100.00
34586;BME280;20816;50.950;11.108;2022-12-16T08:28:45;98070.19;;;-9.22;100.00
34586;BME280;20816;50.950;11.108;2022-12-16T08:31:50;98074.31;;;-9.24;100.00
34586;BME280;20816;50.950;11.108;2022-12-16T08:34:35;98087.75;;;-9.09;100.00
34586;BME280;20816;50.950;11.108;2022-12-16T08:37:40;98091.41;;;-9.04;100.00
34586;BME280;20816;50.950;11.108;2022-12-16T08:40:43;98082.22;;;-9.00;100.00
34586;BME280;20816;50.950;11.108;2022-12-16T08:43:33;98090.22;;;-8.93;100.00
34586;BME280;20816;50.950;11.108;2022-12-16T08:46:19;98093.47;;;-8.78;100.00
34586;BME280;20816;50.950;11.108;2022-12-16T08:49:04;98090.25;;;-8.54;100.00
34586;BME280;20816;50.950;11.108;2022-12-16T08:51:50;98093.31;;;-8.23;100.00
34586;BME280;20816;50.950;11.108;2022-12-16T08:54:36;98093.66;;;-7.94;100.00
34586;BME280;20816;50.950;11.108;2022-12-16T08:57:22;98101.25;;;-7.75;100.00
34586;BME280;20816;50.950;11.108;2022-12-16T09:00:08;98103.22;;;-7.48;100.00
34586;BME280;20816;50.950;11.108;2022-12-16T09:02:54;98102.22;;;-7.31;100.00
34586;BME280;20816;50.950;11.108;2022-12-16T09:05:40;98097.22;;;-7.28;100.00
34586;BME280;20816;50.950;11.108;2022-12-16T09:08:25;98097.56;;;-7.19;100.00
34586;BME280;20816;50.950;11.108;2022-12-16T09:11:12;98094.53;;;-6.88;100.00
34586;BME280;20816;50.950;11.108;2022-12-16T09:13:57;98099.63;;;-6.65;100.00
34586;BME280;20816;50.950;11.108;2022-12-16T09:16:42;98099.78;;;-6.61;100.00
34586;BME280;20816;50.950;11.108;2022-12-16T09:19:27;98103.72;;;-6.46;100.00
34586;BME280;20816;50.950;11.108;2022-12-16T09:22:13;98113.69;;;-6.30;100.00
34586;BME280;20816;50.950;11.108;2022-12-16T09:24:58;98108.06;;;-5.96;100.00
34586;BME280;20816;50.950;11.108;2022-12-16T09:27:43;98113.03;;;-5.75;97.56
34586;BME280;20816;50.950;11.108;2022-12-16T09:30:28;98115.69;;;-5.47;97.18
34586;BME280;20816;50.950;11.108;2022-12-16T09:33:13;98113.22;;;-5.18;96.75
34586;BME280;20816;50.950;11.108;2022-12-16T09:35:59;98113.88;;;-5.24;96.08
34586;BME280;20816;50.950;11.108;2022-12-16T09:38:44;98118.78;;;-5.30;96.09
34586;BME280;20816;50.950;11.108;2022-12-16T09:50:53;98123.94;;;-5.03;99.54
34586;BME280;20816;50.950;11.108;2022-12-16T09:53:42;98124.03;;;-5.00;100.00
34586;BME280;20816;50.950;11.108;2022-12-16T09:56:32;98126.59;;;-5.00;100.00
34586;BME280;20816;50.950;11.108;2022-12-16T09:59:26;98133.97;;;-4.82;100.00
34586;BME280;20816;50.950;11.108;2022-12-16T10:02:16;98141.72;;;-5.08;100.00
34586;BME280;20816;50.950;11.108;2022-12-16T10:05:12;98141.09;;;-5.27;100.00
34586;BME280;20816;50.950;11.108;2022-12-16T10:08:16;98143.63;;;-5.02;100.00
34586;BME280;20816;50.950;11.108;2022-12-16T10:11:10;98147.97;;;-5.26;100.00
34586;BME280;20816;50.950;11.108;2022-12-16T10:14:08;98145.59;;;-5.20;100.00
34586;BME280;20816;50.950;11.108;2022-12-16T10:20:06;98155.91;;;-5.44;100.00
34586;BME280;20816;50.950;11.108;2022-12-16T10:26:39;98156.88;;;-5.41;100.00
34586;BME280;20816;50.950;11.108;2022-12-16T10:29:25;98146.63;;;-5.41;100.00
34586;BME280;20816;50.950;11.108;2022-12-16T10:32:32;98150.44;;;-5.29;100.00
34586;BME280;20816;50.950;11.108;2022-12-16T10:35:22;98141.47;;;-5.15;100.00
34586;BME280;20816;50.950;11.108;2022-12-16T10:38:19;98137.38;;;-5.10;100.00
34586;BME280;20816;50.950;11.108;2022-12-16T10:41:06;98137.88;;;-4.95;100.00
34586;BME280;20816;50.950;11.108;2022-12-16T10:43:53;98147.22;;;-4.68;100.00
34586;BME280;20816;50.950;11.108;2022-12-16T10:46:39;98134.03;;;-4.52;100.00
34586;BME280;20816;50.950;11.108;2022-12-16T10:49:24;98136.47;;;-4.57;100.00
34586;BME280;20816;50.950;11.108;2022-12-16T10:52:16;98133.53;;;-4.40;100.00
34586;BME280;20816;50.950;11.108;2022-12-16T10:55:11;98134.69;;;-4.31;100.00
34586;BME280;20816;50.950;11.108;2022-12-16T11:01:22;98133.22;;;-4.22;100.00
34586;BME280;20816;50.950;11.108;2022-12-16T11:04:34;98134.56;;;-4.05;100.00
34586;BME280;20816;50.950;11.108;2022-12-16T11:07:34;98140.84;;;-3.94;100.00
34586;BME280;20816;50.950;11.108;2022-12-16T11:16:23;98130.50;;;-3.97;100.00
34586;BME280;20816;50.950;11.108;2022-12-16T11:19:28;98137.38;;;-3.96;100.00
34586;BME280;20816;50.950;11.108;2022-12-16T11:22:22;98142.25;;;-4.05;100.00
34586;BME280;20816;50.950;11.108;2022-12-16T11:25:18;98141.41;;;-4.04;100.00
34586;BME280;20816;50.950;11.108;2022-12-16T11:28:16;98151.38;;;-4.15;100.00
34586;BME280;20816;50.950;11.108;2022-12-16T11:31:04;98151.81;;;-4.30;100.00
34586;BME280;20816;50.950;11.108;2022-12-16T11:33:51;98154.84;;;-4.43;100.00
34586;BME280;20816;50.950;11.108;2022-12-16T11:36:39;98150.75;;;-4.36;100.00
34586;BME280;20816;50.950;11.108;2022-12-16T11:39:27;98141.19;;;-4.42;100.00
34586;BME280;20816;50.950;11.108;2022-12-16T11:42:23;98143.25;;;-4.30;100.00
34586;BME280;20816;50.950;11.108;2022-12-16T11:45:15;98141.09;;;-4.45;100.00
34586;BME280;20816;50.950;11.108;2022-12-16T11:48:16;98154.03;;;-4.40;100.00
34586;BME280;20816;50.950;11.108;2022-12-16T11:51:11;98148.16;;;-4.38;100.00
34586;BME280;20816;50.950;11.108;2022-12-16T11:54:08;98144.69;;;-4.40;100.00
34586;BME280;20816;50.950;11.108;2022-12-16T11:56:59;98159.09;;;-4.43;100.00
34586;BME280;20816;50.950;11.108;2022-12-16T11:59:56;98166.72;;;-4.46;100.00
34586;BME280;20816;50.950;11.108;2022-12-16T12:02:48;98167.69;;;-4.41;100.00
34586;BME280;20816;50.950;11.108;2022-12-16T12:08:38;98175.91;;;-4.53;100.00
34586;BME280;20816;50.950;11.108;2022-12-16T12:11:33;98181.03;;;-4.53;100.00
34586;BME280;20816;50.950;11.108;2022-12-16T12:14:34;98178.19;;;-4.62;100.00
34586;BME280;20816;50.950;11.108;2022-12-16T12:17:51;98192.78;;;-4.60;100.00
34586;BME280;20816;50.950;11.108;2022-12-16T12:26:36;98199.88;;;-4.51;100.00
34586;BME280;20816;50.950;11.108;2022-12-16T12:38:46;98209.50;;;-4.44;100.00
34586;BME280;20816;50.950;11.108;2022-12-16T12:47:29;98210.84;;;-4.28;100.00
34586;BME280;20816;50.950;11.108;2022-12-16T12:50:25;98215.38;;;-4.19;100.00
34586;BME280;20816;50.950;11.108;2022-12-16T12:56:36;98219.75;;;-3.87;100.00
34586;BME280;20816;50.950;11.108;2022-12-16T12:59:35;98224.34;;;-3.75;100.00
34586;BME280;20816;50.950;11.108;2022-12-16T13:02:38;98220.38;;;-3.65;100.00
34586;BME280;20816;50.950;11.108;2022-12-16T13:05:30;98222.19;;;-3.61;100.00
34586;BME280;20816;50.950;11.108;2022-12-16T13:11:26;98233.47;;;-3.56;100.00
34586;BME280;20816;50.950;11.108;2022-12-16T13:17:17;98240.00;;;-3.36;100.00
34586;BME280;20816;50.950;11.108;2022-12-16T13:20:34;98242.50;;;-3.39;100.00
34586;BME280;20816;50.950;11.108;2022-12-16T13:23:32;98245.13;;;-3.36;100.00
34586;BME280;20816;50.950;11.108;2022-12-16T13:26:20;98247.66;;;-3.38;100.00
34586;BME280;20816;50.950;11.108;2022-12-16T13:38:00;98267.78;;;-3.53;100.00
34586;BME280;20816;50.950;11.108;2022-12-16T13:40:58;98260.97;;;-3.52;100.00
34586;BME280;20816;50.950;11.108;2022-12-16T13:43:52;98269.63;;;-3.49;100.00
34586;BME280;20816;50.950;11.108;2022-12-16T13:52:31;98281.88;;;-3.69;100.00
34586;BME280;20816;50.950;11.108;2022-12-16T13:55:26;98285.09;;;-3.76;100.00
34586;BME280;20816;50.950;11.108;2022-12-16T13:58:46;98294.25;;;-3.85;100.00
34586;BME280;20816;50.950;11.108;2022-12-16T14:04:34;98309.69;;;-4.12;100.00
34586;BME280;20816;50.950;11.108;2022-12-16T14:07:21;98310.94;;;-4.27;100.00
34586;BME280;20816;50.950;11.108;2022-12-16T14:10:27;98316.59;;;-4.37;100.00
34586;BME280;20816;50.950;11.108;2022-12-16T14:13:25;98310.28;;;-4.48;100.00
34586;BME280;20816;50.950;11.108;2022-12-16T14:16:17;98316.94;;;-4.53;100.00
34586;BME280;20816;50.950;11.108;2022-12-16T14:25:58;98330.66;;;-4.76;100.00
34586;BME280;20816;50.950;11.108;2022-12-16T14:28:47;98334.75;;;-4.82;100.00
34586;BME280;20816;50.950;11.108;2022-12-16T14:31:40;98339.78;;;-4.85;100.00
34586;BME280;20816;50.950;11.108;2022-12-16T14:34:30;98337.00;;;-4.91;100.00
34586;BME280;20816;50.950;11.108;2022-12-16T14:37:34;98341.72;;;-5.03;100.00
34586;BME280;20816;50.950;11.108;2022-12-16T14:43:17;98343.78;;;-5.17;100.00
34586;BME280;20816;50.950;11.108;2022-12-16T14:46:03;98345.22;;;-5.25;100.00
34586;BME280;20816;50.950;11.108;2022-12-16T14:48:49;98351.66;;;-5.36;100.00
34586;BME280;20816;50.950;11.108;2022-12-16T14:51:37;98359.88;;;-5.45;100.00
34586;BME280;20816;50.950;11.108;2022-12-16T14:54:37;98351.03;;;-5.53;100.00
34586;BME280;20816;50.950;11.108;2022-12-16T14:57:27;98361.03;;;-5.59;100.00
34586;BME280;20816;50.950;11.108;2022-12-16T15:05:50;98368.41;;;-5.89;100.00
34586;BME280;20816;50.950;11.108;2022-12-16T15:08:46;98372.53;;;-5.94;100.00
34586;BME280;20816;50.950;11.108;2022-12-16T15:11:33;98379.91;;;-6.02;100.00
34586;BME280;20816;50.950;11.108;2022-12-16T15:14:26;98376.16;;;-6.10;100.00
34586;BME280;20816;50.950;11.108;2022-12-16T15:17:28;98386.50;;;-6.07;100.00
34586;BME280;20816;50.950;11.108;2022-12-16T15:20:19;98386.63;;;-6.04;100.00
34586;BME280;20816;50.950;11.108;2022-12-16T15:23:21;98396.84;;;-6.04;100.00
34586;BME280;20816;50.950;11.108;2022-12-16T15:26:07;98399.84;;;-6.14;100.00
34586;BME280;20816;50.950;11.108;2022-12-16T15:28:53;98400.75;;;-6.34;100.00
34586;BME280;20816;50.950;11.108;2022-12-16T15:31:39;98406.44;;;-6.61;100.00
34586;BME280;20816;50.950;11.108;2022-12-16T15:34:47;98405.34;;;-6.67;100.00
34586;BME280;20816;50.950;11.108;2022-12-16T15:37:40;98409.16;;;-6.77;100.00
34586;BME280;20816;50.950;11.108;2022-12-16T15:40:31;98409.91;;;-6.80;100.00
34586;BME280;20816;50.950;11.108;2022-12-16T15:46:22;98429.00;;;-6.71;100.00
34586;BME280;20816;50.950;11.108;2022-12-16T16:01:18;98441.03;;;-6.88;100.00
34586;BME280;20816;50.950;11.108;2022-12-16T16:04:15;98452.94;;;-6.89;100.00
34586;BME280;20816;50.950;11.108;2022-12-16T16:07:02;98447.50;;;-6.96;100.00
34586;BME280;20816;50.950;11.108;2022-12-16T16:09:47;98454.22;;;-6.98;100.00
34586;BME280;20816;50.950;11.108;2022-12-16T16:12:32;98463.94;;;-7.09;100.00
34586;BME280;20816;50.950;11.108;2022-12-16T16:15:17;98468.19;;;-7.10;100.00
34586;BME280;20816;50.950;11.108;2022-12-16T16:18:04;98466.59;;;-7.08;100.00
34586;BME280;20816;50.950;11.108;2022-12-16T16:20:50;98470.59;;;-7.13;100.00
34586;BME280;20816;50.950;11.108;2022-12-16T16:23:35;98468.72;;;-7.17;100.00
34586;BME280;20816;50.950;11.108;2022-12-16T16:26:22;98472.06;;;-7.18;100.00
34586;BME280;20816;50.950;11.108;2022-12-16T16:29:11;98475.59;;;-7.16;100.00